Time;durP1;ratioP1;P1;durP2;ratioP2;P2;SDS_P1;SDS_P2;PMS_P1;PMS_P2;Temp;Humidity;BMP_temperature;BMP_pressure;BME280_temperature;BME280_humidity;BME280_pressure;Samples;Min_cycle;Max_cycle;Signal;HPM_P1;HPM_P2
2023/03/01 00:02:21;;;;;;;47.78;25.50;;;3.40;99.90;;;;;;4919143;29;20066;-76
2023/03/01 00:04:47;;;;;;;45.45;25.75;;;3.40;99.90;;;;;;4900660;29;20028;-76
2023/03/01 00:07:13;;;;;;;51.03;25.15;;;3.40;99.90;;;;;;4917543;29;20131;-75
2023/03/01 00:09:39;;;;;;;43.60;26.13;;;3.40;99.90;;;;;;4917504;29;20107;-75
2023/03/01 00:12:06;;;;;;;45.95;24.02;;;3.30;99.90;;;;;;4917456;29;20039;-74
2023/03/01 00:14:31;;;;;;;43.53;25.80;;;3.40;99.90;;;;;;4920072;29;20084;-74
2023/03/01 00:16:57;;;;;;;46.70;27.52;;;3.30;99.90;;;;;;4919759;29;20031;-74
2023/03/01 00:19:23;;;;;;;42.53;26.48;;;3.40;99.90;;;;;;4917495;29;20036;-75
2023/03/01 00:21:49;;;;;;;45.40;25.38;;;3.40;99.90;;;;;;4917322;29;20039;-74
2023/03/01 00:24:15;;;;;;;46.42;24.85;;;3.40;99.90;;;;;;4920973;29;20027;-75
2023/03/01 00:26:41;;;;;;;45.13;25.38;;;3.40;99.90;;;;;;4917205;29;20032;-74
2023/03/01 00:29:07;;;;;;;48.90;27.50;;;3.40;99.90;;;;;;4917241;29;20016;-75
2023/03/01 00:31:34;;;;;;;49.63;26.10;;;3.30;99.90;;;;;;4923334;29;20039;-75
2023/03/01 00:34:02;;;;;;;53.83;26.35;;;3.40;99.90;;;;;;4916051;29;20039;-75
2023/03/01 00:36:34;;;;;;;50.03;26.45;;;3.40;99.90;;;;;;4916850;29;20394;-74
2023/03/01 00:39:02;;;;;;;;;;;3.40;99.90;;;;;;4919046;29;20155;-74
2023/03/01 00:41:28;;;;;;;48.17;26.55;;;3.40;99.90;;;;;;4916816;29;20273;-73
2023/03/01 00:43:55;;;;;;;65.18;33.90;;;3.50;99.90;;;;;;4900262;29;20046;-75
2023/03/01 00:46:23;;;;;;;70.93;35.95;;;3.40;99.90;;;;;;4920263;29;20020;-74
2023/03/01 00:48:49;;;;;;;63.40;34.10;;;3.50;99.90;;;;;;4916631;29;20036;-75
2023/03/01 00:51:22;;;;;;;64.13;34.05;;;3.50;99.90;;;;;;4915608;29;20487;-74
2023/03/01 00:53:50;;;;;;;;;;;3.60;99.90;;;;;;4917470;29;20032;-74
2023/03/01 00:56:16;;;;;;;54.35;28.95;;;3.60;99.90;;;;;;4924342;29;20021;-75
2023/03/01 00:58:43;;;;;;;50.83;28.83;;;3.60;99.90;;;;;;4915434;29;20072;-75
2023/03/01 01:01:22;;;;;;;55.10;29.40;;;3.60;99.90;;;;;;4916403;29;20036;-75
2023/03/01 01:03:52;;;;;;;54.95;28.70;;;3.60;99.90;;;;;;4916426;29;20128;-75
2023/03/01 01:06:22;;;;;;;57.05;28.40;;;3.60;99.90;;;;;;4916120;29;20439;-74
2023/03/01 01:08:49;;;;;;;51.97;29.70;;;3.60;99.90;;;;;;4915186;29;20032;-75
2023/03/01 01:11:15;;;;;;;58.45;29.42;;;3.60;99.90;;;;;;4914730;29;20044;-75
2023/03/01 01:13:41;;;;;;;53.95;28.80;;;3.60;99.90;;;;;;4916208;29;20016;-74
2023/03/01 01:16:08;;;;;;;43.22;23.70;;;3.50;99.90;;;;;;4899069;29;20039;-75
2023/03/01 01:18:34;;;;;;;49.22;26.08;;;3.50;99.90;;;;;;4916519;29;20055;-75
2023/03/01 01:21:05;;;;;;;46.33;25.48;;;3.50;99.90;;;;;;4916131;29;20063;-74
2023/03/01 01:23:31;;;;;;;53.80;27.40;;;3.60;99.90;;;;;;4915725;29;20036;-75
2023/03/01 01:25:57;;;;;;;48.75;27.23;;;3.60;99.90;;;;;;4899886;29;20072;-73
2023/03/01 01:28:23;;;;;;;51.70;28.85;;;3.50;99.90;;;;;;4899275;29;20032;-74
2023/03/01 01:30:49;;;;;;;42.72;27.05;;;3.60;99.90;;;;;;4915938;29;20021;-74
2023/03/01 01:33:14;;;;;;;55.50;28.20;;;3.60;99.90;;;;;;4915938;29;20483;-74
2023/03/01 01:35:40;;;;;;;46.53;27.08;;;3.60;99.90;;;;;;4914391;29;20054;-73
2023/03/01 01:38:06;;;;;;;42.55;24.25;;;3.60;99.90;;;;;;4898527;29;20096;-74
2023/03/01 01:40:33;;;;;;;45.25;24.80;;;3.60;99.90;;;;;;4914601;29;20422;-75
2023/03/01 01:42:58;;;;;;;47.95;24.90;;;3.50;99.90;;;;;;4914484;29;20172;-74
2023/03/01 01:45:27;;;;;;;45.58;24.42;;;3.50;99.90;;;;;;4914827;29;20056;-74
2023/03/01 01:47:57;;;;;;;45.50;23.17;;;3.50;99.90;;;;;;4915659;29;20028;-74
2023/03/01 01:50:23;;;;;;;47.15;25.27;;;3.50;99.90;;;;;;4915568;29;20022;-74
2023/03/01 01:52:52;;;;;;;44.33;23.20;;;3.40;99.90;;;;;;4915642;29;20028;-73
2023/03/01 01:55:25;;;;;;;48.45;25.35;;;3.40;99.90;;;;;;4914710;29;20028;-75
2023/03/01 01:57:52;;;;;;;;;;;3.50;99.90;;;;;;4916267;29;20064;-75
2023/03/01 02:00:24;;;;;;;48.63;25.90;;;3.50;99.90;;;;;;4914291;29;19958;-75
2023/03/01 02:02:55;;;;;;;44.22;24.52;;;3.50;99.90;;;;;;4915093;29;20067;-75
2023/03/01 02:05:36;;;;;;;45.58;23.55;;;3.40;99.90;;;;;;4919515;29;20032;-75
2023/03/01 02:08:02;;;;;;;39.28;22.67;;;3.50;99.90;;;;;;4918046;29;20471;-76
2023/03/01 02:10:33;;;;;;;40.25;22.40;;;3.40;99.90;;;;;;4915106;29;20047;-75
2023/03/01 02:12:59;;;;;;;42.33;22.15;;;3.50;99.90;;;;;;4922295;29;20036;-75
2023/03/01 02:15:26;;;;;;;40.45;23.02;;;3.40;99.90;;;;;;4935213;29;20044;-75
2023/03/01 02:17:54;;;;;;;38.00;21.73;;;3.50;99.90;;;;;;4918752;29;20043;-74
2023/03/01 02:21:05;;;;;;;42.95;23.85;;;3.60;99.90;;;;;;4934357;29;20079;-75
2023/03/01 02:23:32;;;;;;;53.20;29.95;;;3.70;99.90;;;;;;4932204;29;20398;-75
2023/03/01 02:26:09;;;;;;;47.65;24.42;;;3.60;99.90;;;;;;4935796;29;20411;-75
2023/03/01 02:28:40;;;;;;;51.92;26.20;;;3.50;99.90;;;;;;4934553;29;20028;-76
2023/03/01 02:33:53;;;;;;;47.88;26.20;;;3.60;99.90;;;;;;4935692;29;20059;-76
2023/03/01 02:36:24;;;;;;;55.08;26.63;;;3.50;99.90;;;;;;4935666;29;20067;-76
2023/03/01 02:38:53;;;;;;;47.10;26.85;;;3.60;99.90;;;;;;4936445;29;20062;-75
2023/03/01 02:41:20;;;;;;;46.17;24.05;;;3.60;99.90;;;;;;4934415;29;20023;-75
2023/03/01 02:43:47;;;;;;;37.58;21.35;;;3.50;99.90;;;;;;4937165;29;20020;-74
2023/03/01 02:46:24;;;;;;;35.85;22.48;;;3.50;99.90;;;;;;4921258;29;20080;-76
2023/03/01 02:48:56;;;;;;;37.20;21.80;;;3.60;99.90;;;;;;4922607;29;20533;-76
2023/03/01 02:51:50;;;;;;;48.38;26.52;;;3.60;99.90;;;;;;4939656;29;20032;-75
2023/03/01 02:54:28;;;;;;;66.40;33.65;;;3.60;99.90;;;;;;4861922;29;20522;-76
2023/03/01 02:56:55;;;;;;;69.22;34.05;;;3.50;99.90;;;;;;4844656;29;20053;-76
2023/03/01 02:59:29;;;;;;;62.42;35.25;;;3.50;99.90;;;;;;4845412;29;20530;-77
2023/03/01 03:01:55;;;;;;;68.95;37.38;;;3.50;99.90;;;;;;4861671;29;20515;-78
2023/03/01 03:04:20;;;;;;;72.00;38.13;;;3.50;99.90;;;;;;4861991;29;20102;-76
2023/03/01 03:06:50;;;;;;;68.20;38.65;;;3.50;99.90;;;;;;4846138;29;20500;-73
2023/03/01 03:09:17;;;;;;;82.70;46.55;;;3.60;99.90;;;;;;4859768;29;20079;-75
2023/03/01 03:11:43;;;;;;;80.20;44.17;;;3.60;99.90;;;;;;4861227;29;20040;-76
2023/03/01 03:14:12;;;;;;;82.63;40.10;;;3.60;99.90;;;;;;4846521;29;20189;-75
2023/03/01 03:16:48;;;;;;;62.92;36.05;;;3.50;99.90;;;;;;4845939;29;20136;-75
2023/03/01 03:19:15;;;;;;;75.65;37.22;;;3.50;99.90;;;;;;4846392;29;20037;-76
2023/03/01 03:21:40;;;;;;;73.93;37.83;;;3.50;99.90;;;;;;4861306;29;20112;-75
2023/03/01 03:24:06;;;;;;;69.28;36.53;;;3.50;99.90;;;;;;4861768;29;20132;-75
2023/03/01 03:26:32;;;;;;;69.57;35.58;;;3.40;99.90;;;;;;4861523;29;20052;-76
2023/03/01 03:28:58;;;;;;;66.43;35.38;;;3.40;99.90;;;;;;4861521;29;20041;-73
2023/03/01 03:31:24;;;;;;;65.88;34.97;;;3.50;99.90;;;;;;4889942;29;20036;-75
2023/03/01 03:33:50;;;;;;;64.85;34.53;;;3.40;99.90;;;;;;4919753;29;20062;-76
2023/03/01 03:36:18;;;;;;;66.88;37.20;;;3.50;99.90;;;;;;4919464;29;20036;-76
2023/03/01 03:38:45;;;;;;;76.63;40.42;;;3.50;99.90;;;;;;4919484;29;20059;-74
2023/03/01 03:41:12;;;;;;;79.65;38.83;;;3.50;99.90;;;;;;4919592;29;20072;-75
2023/03/01 03:43:40;;;;;;;61.67;34.63;;;3.50;99.90;;;;;;4919609;29;20020;-75
2023/03/01 03:46:06;;;;;;;81.75;40.17;;;3.50;99.90;;;;;;4919324;29;20033;-76
2023/03/01 03:48:43;;;;;;;71.80;34.78;;;3.40;99.90;;;;;;4919396;29;20439;-75
2023/03/01 03:51:17;;;;;;;74.63;37.80;;;3.50;99.90;;;;;;4908162;29;20080;-76
2023/03/01 03:53:44;;;;;;;68.85;33.03;;;3.40;99.90;;;;;;4919240;29;20036;-76
2023/03/01 03:56:11;;;;;;;67.13;35.47;;;3.40;99.90;;;;;;4919457;29;20084;-73
2023/03/01 03:58:37;;;;;;;69.10;35.22;;;3.40;99.90;;;;;;4919208;29;20063;-75
2023/03/01 04:01:03;;;;;;;58.60;32.13;;;3.40;99.90;;;;;;4918923;29;20032;-75
2023/03/01 04:03:30;;;;;;;71.35;36.88;;;3.40;99.90;;;;;;4919140;29;20028;-75
2023/03/01 04:06:00;;;;;;;64.28;32.65;;;3.40;99.90;;;;;;4924756;29;20056;-77
2023/03/01 04:08:28;;;;;;;61.83;34.65;;;3.40;99.90;;;;;;4938005;29;20481;-74
2023/03/01 04:11:00;;;;;;;69.97;36.13;;;3.50;99.90;;;;;;4938013;29;20030;-75
2023/03/01 04:13:26;;;;;;;70.47;37.70;;;3.40;99.90;;;;;;4938047;29;20497;-75
2023/03/01 04:15:54;;;;;;;73.63;35.97;;;3.40;99.90;;;;;;4937767;29;20381;-73
2023/03/01 04:18:22;;;;;;;63.47;33.95;;;3.40;99.90;;;;;;4937891;29;20039;-76
2023/03/01 04:20:48;;;;;;;63.67;35.22;;;3.40;99.90;;;;;;4925455;29;20039;-75
2023/03/01 04:23:18;;;;;;;73.07;36.17;;;3.30;99.90;;;;;;4937933;29;20114;-75
2023/03/01 04:25:53;;;;;;;75.68;36.05;;;3.20;99.90;;;;;;4937823;29;20034;-76
2023/03/01 04:28:30;;;;;;;69.78;35.28;;;3.20;99.90;;;;;;4937718;29;20035;-74
2023/03/01 04:30:58;;;;;;;60.58;32.78;;;3.20;99.90;;;;;;4937445;29;20027;-74
2023/03/01 04:33:24;;;;;;;63.70;34.60;;;3.20;99.90;;;;;;4937636;29;20070;-75
2023/03/01 04:35:50;;;;;;;65.57;34.15;;;3.30;99.90;;;;;;4937435;29;20028;-75
2023/03/01 04:38:18;;;;;;;71.68;35.80;;;3.20;99.90;;;;;;4919848;29;20035;-75
2023/03/01 04:40:43;;;;;;;69.47;35.65;;;3.20;99.90;;;;;;4937390;29;20496;-75
2023/03/01 04:43:11;;;;;;;66.85;33.35;;;3.10;99.90;;;;;;4937564;29;20031;-75
2023/03/01 04:45:37;;;;;;;72.30;35.53;;;3.10;99.90;;;;;;4937249;29;20039;-77
2023/03/01 04:48:03;;;;;;;64.05;33.97;;;3.10;99.90;;;;;;4937359;29;20028;-75
2023/03/01 04:50:29;;;;;;;60.80;33.38;;;3.20;99.90;;;;;;4937178;29;20038;-74
2023/03/01 04:52:58;;;;;;;68.85;33.88;;;3.10;99.90;;;;;;4937338;29;20043;-77
2023/03/01 04:55:26;;;;;;;64.50;32.20;;;3.10;99.90;;;;;;4937023;29;20462;-77
2023/03/01 04:57:52;;;;;;;55.50;30.08;;;3.30;99.90;;;;;;4919913;29;20403;-77
2023/03/01 05:00:22;;;;;;;49.95;29.33;;;3.30;99.90;;;;;;4929499;29;20028;-78
2023/03/01 05:02:48;;;;;;;60.15;31.73;;;3.30;99.90;;;;;;4936598;29;20114;-77
2023/03/01 05:05:15;;;;;;;54.92;29.27;;;3.30;99.90;;;;;;4936802;29;20024;-77
2023/03/01 05:07:41;;;;;;;58.03;27.13;;;3.30;99.90;;;;;;4936760;29;20043;-79
2023/03/01 05:10:07;;;;;;;55.08;30.00;;;3.30;99.90;;;;;;4936774;29;20377;-78
2023/03/01 05:12:33;;;;;;;60.30;31.58;;;3.30;99.90;;;;;;4936959;29;20367;-79
2023/03/01 05:14:59;;;;;;;48.83;27.40;;;3.30;99.90;;;;;;4936715;29;20023;-78
2023/03/01 05:17:25;;;;;;;44.58;27.42;;;3.40;99.90;;;;;;4923845;29;20043;-78
2023/03/01 05:19:51;;;;;;;53.25;28.52;;;3.40;99.90;;;;;;4937041;29;20074;-79
2023/03/01 05:22:17;;;;;;;53.42;29.08;;;3.30;99.90;;;;;;4936755;29;20548;-79
2023/03/01 05:24:43;;;;;;;47.55;25.08;;;3.30;99.90;;;;;;4936805;29;20051;-78
2023/03/01 05:27:09;;;;;;;46.20;26.48;;;3.30;99.90;;;;;;4936873;29;20032;-78
2023/03/01 05:29:34;;;;;;;46.90;25.77;;;3.30;99.90;;;;;;4936524;29;20015;-77
2023/03/01 05:32:02;;;;;;;41.08;23.40;;;3.30;99.90;;;;;;4936453;29;20485;-76
2023/03/01 05:34:34;;;;;;;49.97;27.33;;;3.40;99.90;;;;;;4936480;29;20024;-77
2023/03/01 05:37:00;;;;;;;48.55;26.42;;;3.30;99.90;;;;;;4936713;29;20087;-78
2023/03/01 05:39:28;;;;;;;44.67;27.83;;;3.40;99.90;;;;;;4936233;29;20024;-77
2023/03/01 05:41:59;;;;;;;47.22;25.67;;;3.50;99.90;;;;;;4936543;29;20040;-78
2023/03/01 05:44:26;;;;;;;46.88;24.33;;;3.40;99.90;;;;;;4936167;29;20095;-78
2023/03/01 05:46:52;;;;;;;40.35;23.45;;;3.40;99.90;;;;;;4936587;29;20164;-78
2023/03/01 05:49:17;;;;;;;45.95;26.15;;;3.40;99.90;;;;;;4936415;29;20533;-78
2023/03/01 05:51:48;;;;;;;43.08;24.45;;;3.40;99.90;;;;;;4936633;29;20123;-78
2023/03/01 05:54:15;;;;;;;50.35;26.63;;;3.40;99.90;;;;;;4923611;29;20024;-78
2023/03/01 05:56:40;;;;;;;56.03;32.30;;;3.40;99.90;;;;;;4935934;29;20527;-78
2023/03/01 05:59:06;;;;;;;59.28;31.63;;;3.40;99.90;;;;;;4936207;29;20111;-78
2023/03/01 06:01:33;;;;;;;53.70;31.38;;;3.40;99.90;;;;;;4935878;29;20034;-78
2023/03/01 06:04:00;;;;;;;57.40;30.00;;;3.50;99.90;;;;;;4936452;29;20081;-77
2023/03/01 06:06:25;;;;;;;56.88;32.15;;;3.50;99.90;;;;;;4936267;28;20103;-75
2023/03/01 06:08:52;;;;;;;58.03;30.52;;;3.60;99.90;;;;;;4936329;29;20035;-76
2023/03/01 06:11:19;;;;;;;61.08;31.98;;;3.60;99.90;;;;;;4935955;29;20499;-76
2023/03/01 06:13:45;;;;;;;56.25;29.98;;;3.70;99.90;;;;;;4935267;29;20035;-77
2023/03/01 06:16:12;;;;;;;59.08;31.67;;;3.70;99.90;;;;;;4935481;29;20397;-76
2023/03/01 06:18:38;;;;;;;62.97;33.22;;;3.70;99.90;;;;;;4935960;29;20098;-76
2023/03/01 06:21:06;;;;;;;61.72;34.67;;;3.70;99.90;;;;;;4935866;29;20066;-76
2023/03/01 06:23:32;;;;;;;87.38;45.00;;;3.70;99.90;;;;;;4935810;29;20096;-76
2023/03/01 06:25:58;;;;;;;68.47;39.20;;;3.60;99.90;;;;;;4935771;29;20032;-78
2023/03/01 06:28:24;;;;;;;57.10;31.70;;;3.60;99.90;;;;;;4935868;29;20027;-78
2023/03/01 06:30:51;;;;;;;67.70;33.17;;;3.70;99.90;;;;;;4935623;29;20035;-74
2023/03/01 06:33:19;;;;;;;64.53;33.30;;;3.70;99.90;;;;;;4935881;29;20060;-76
2023/03/01 06:35:48;;;;;;;59.67;30.38;;;3.60;99.90;;;;;;4935511;29;20028;-75
2023/03/01 06:38:18;;;;;;;48.92;27.20;;;3.70;99.90;;;;;;4936037;29;20024;-76
2023/03/01 06:40:50;;;;;;;48.75;29.20;;;3.70;99.90;;;;;;4935607;29;20115;-76
2023/03/01 06:43:16;;;;;;;50.27;29.50;;;3.70;99.90;;;;;;4935573;29;20099;-77
2023/03/01 06:45:42;;;;;;;54.28;29.17;;;3.80;99.90;;;;;;4935503;29;20438;-77
2023/03/01 06:48:08;;;;;;;50.60;28.05;;;3.60;99.90;;;;;;4935818;29;20050;-77
2023/03/01 06:50:35;;;;;;;49.20;26.63;;;3.70;99.90;;;;;;4935585;29;20015;-77
2023/03/01 06:53:01;;;;;;;54.20;30.58;;;3.70;99.90;;;;;;4935601;29;20035;-77
2023/03/01 06:55:26;;;;;;;51.67;28.67;;;3.70;99.90;;;;;;4935476;29;20027;-77
2023/03/01 06:58:00;;;;;;;52.00;31.08;;;3.60;99.90;;;;;;4935948;29;20500;-76
2023/03/01 07:00:26;;;;;;;;;;;3.70;99.90;;;;;;4935925;29;20609;-76
2023/03/01 07:02:52;;;;;;;57.40;30.95;;;3.70;99.90;;;;;;4935846;29;19911;-79
2023/03/01 07:05:19;;;;;;;58.97;32.13;;;3.70;99.90;;;;;;4947071;28;20027;-78
2023/03/01 07:07:45;;;;;;;58.78;32.08;;;3.70;99.90;;;;;;4936039;29;20036;-79
2023/03/01 07:10:11;;;;;;;59.58;31.65;;;3.80;99.90;;;;;;4935801;29;20569;-76
2023/03/01 07:12:37;;;;;;;61.72;34.78;;;3.70;99.90;;;;;;4935383;29;20024;-76
2023/03/01 07:15:03;;;;;;;62.45;35.85;;;3.80;99.90;;;;;;4935274;29;20031;-74
2023/03/01 07:17:29;;;;;;;61.53;36.00;;;3.80;99.90;;;;;;4935424;29;20063;-76
2023/03/01 07:19:56;;;;;;;66.97;36.10;;;3.70;99.90;;;;;;4935329;29;20074;-76
2023/03/01 07:22:21;;;;;;;57.67;32.38;;;3.70;99.90;;;;;;4935477;29;20030;-75
2023/03/01 07:24:47;;;;;;;57.42;32.08;;;3.80;99.90;;;;;;4937329;29;20020;-79
2023/03/01 07:27:13;;;;;;;52.50;30.38;;;3.70;99.90;;;;;;4939032;29;20544;-75
2023/03/01 07:29:39;;;;;;;53.13;28.52;;;3.70;99.90;;;;;;4938764;29;20385;-78
2023/03/01 07:32:05;;;;;;;59.20;31.65;;;3.70;99.90;;;;;;4938963;29;20027;-77
2023/03/01 07:34:32;;;;;;;49.47;28.25;;;3.80;99.90;;;;;;4934893;29;20036;-76
2023/03/01 07:36:58;;;;;;;51.97;27.98;;;3.80;99.90;;;;;;4930405;29;20031;-77
2023/03/01 07:39:23;;;;;;;62.28;32.53;;;3.90;99.90;;;;;;4938742;29;20149;-77
2023/03/01 07:41:50;;;;;;;63.28;31.98;;;3.80;99.90;;;;;;4921355;29;20040;-76
2023/03/01 07:44:20;;;;;;;60.67;30.70;;;3.80;99.90;;;;;;4938362;29;20541;-76
2023/03/01 07:46:46;;;;;;;59.20;31.92;;;3.80;99.90;;;;;;4938784;29;20036;-77
2023/03/01 07:49:12;;;;;;;63.83;31.48;;;3.90;99.90;;;;;;4938425;29;20024;-77
2023/03/01 07:51:37;;;;;;;55.42;30.73;;;3.90;99.90;;;;;;4938422;29;20118;-77
2023/03/01 07:54:03;;;;;;;65.65;34.17;;;4.00;99.90;;;;;;4921405;29;20027;-77
2023/03/01 07:56:29;;;;;;;63.78;34.10;;;3.90;99.90;;;;;;4938432;29;20051;-75
2023/03/01 07:58:55;;;;;;;63.78;32.63;;;4.00;99.90;;;;;;4938277;29;20028;-75
2023/03/01 08:01:22;;;;;;;79.93;39.38;;;4.10;99.90;;;;;;4938142;29;20063;-74
2023/03/01 08:03:48;;;;;;;78.75;37.28;;;4.10;99.90;;;;;;4938445;29;20036;-76
2023/03/01 08:06:17;;;;;;;80.05;41.28;;;4.20;99.90;;;;;;4938147;29;20083;-76
2023/03/01 08:08:43;;;;;;;96.13;49.35;;;4.20;99.90;;;;;;4937932;29;20032;-75
2023/03/01 08:11:12;;;;;;;82.82;44.20;;;4.30;99.90;;;;;;4938455;29;20079;-75
2023/03/01 08:13:38;;;;;;;83.43;40.85;;;4.30;99.90;;;;;;4938150;29;20046;-76
2023/03/01 08:16:09;;;;;;;94.38;43.88;;;4.30;99.90;;;;;;4938051;29;20474;-75
2023/03/01 08:18:35;;;;;;;90.53;44.35;;;4.40;99.90;;;;;;4925458;29;20102;-75
2023/03/01 08:21:06;;;;;;;95.80;49.63;;;4.50;99.90;;;;;;4937908;29;20482;-75
2023/03/01 08:23:32;;;;;;;85.72;44.70;;;4.40;99.90;;;;;;4937812;29;20020;-75
2023/03/01 08:26:10;;;;;;;83.80;42.45;;;4.40;99.90;;;;;;4937923;29;20063;-77
2023/03/01 08:28:36;;;;;;;87.45;44.22;;;4.50;99.90;;;;;;4938029;29;20034;-77
2023/03/01 08:31:03;;;;;;;101.80;43.80;;;4.50;99.90;;;;;;4937858;29;20031;-77
2023/03/01 08:33:29;;;;;;;84.97;41.20;;;4.50;99.90;;;;;;4937918;29;20123;-77
2023/03/01 08:36:15;;;;;;;78.68;40.85;;;4.60;99.90;;;;;;4936859;29;20216;-76
2023/03/01 08:38:41;;;;;;;98.63;47.38;;;4.50;99.90;;;;;;4937915;29;20035;-76
2023/03/01 08:41:07;;;;;;;94.25;47.58;;;4.60;99.90;;;;;;4937334;29;20145;-77
2023/03/01 08:43:32;;;;;;;90.60;44.50;;;4.60;99.90;;;;;;4937576;29;20032;-77
2023/03/01 08:45:58;;;;;;;93.80;45.50;;;4.70;99.90;;;;;;4937455;29;20075;-77
2023/03/01 08:48:25;;;;;;;110.80;52.72;;;4.70;99.90;;;;;;4937390;29;20470;-77
2023/03/01 08:50:51;;;;;;;101.97;52.80;;;4.60;99.90;;;;;;4937369;29;20039;-77
2023/03/01 08:53:16;;;;;;;104.38;53.35;;;4.60;99.90;;;;;;4937224;29;20031;-75
2023/03/01 08:55:42;;;;;;;110.07;55.25;;;4.50;99.90;;;;;;4937274;29;20107;-77
2023/03/01 08:58:08;;;;;;;111.45;55.00;;;4.60;99.90;;;;;;4937375;29;20507;-77
2023/03/01 09:00:34;;;;;;;109.63;55.78;;;4.60;99.90;;;;;;4937122;29;20035;-77
2023/03/01 09:03:00;;;;;;;115.15;53.08;;;4.70;99.90;;;;;;4937589;29;20430;-78
2023/03/01 09:05:26;;;;;;;122.63;56.85;;;4.70;99.90;;;;;;4936908;29;20378;-78
2023/03/01 09:07:52;;;;;;;99.07;50.97;;;4.80;99.90;;;;;;4937419;29;20042;-78
2023/03/01 09:10:18;;;;;;;98.85;48.13;;;4.80;99.90;;;;;;4936804;29;20024;-77
2023/03/01 09:12:43;;;;;;;90.50;46.25;;;4.90;99.90;;;;;;4937118;29;20031;-76
2023/03/01 09:15:10;;;;;;;96.25;50.03;;;5.00;99.90;;;;;;4936833;29;20023;-77
2023/03/01 09:17:35;;;;;;;95.00;48.70;;;5.10;99.90;;;;;;4937229;29;20374;-77
2023/03/01 09:20:01;;;;;;;93.45;44.20;;;5.00;99.90;;;;;;4937109;29;20043;-78
2023/03/01 09:22:27;;;;;;;93.35;45.85;;;5.20;99.90;;;;;;4937003;29;20063;-77
2023/03/01 09:24:53;;;;;;;105.55;51.85;;;5.20;99.90;;;;;;4936791;29;20083;-77
2023/03/01 09:27:19;;;;;;;100.78;50.22;;;5.20;99.90;;;;;;4936969;29;20031;-74
2023/03/01 09:29:45;;;;;;;106.38;49.03;;;5.20;99.90;;;;;;4937332;29;20103;-75
2023/03/01 09:32:11;;;;;;;97.93;49.63;;;5.30;99.90;;;;;;4937186;29;20028;-76
2023/03/01 09:37:21;;;;;;;102.13;49.00;;;5.40;99.90;;;;;;4937457;29;20127;-77
2023/03/01 09:39:46;;;;;;;102.38;50.30;;;5.50;99.90;;;;;;4937588;29;20055;-76
2023/03/01 09:42:13;;;;;;;113.05;55.83;;;5.50;99.90;;;;;;4936818;29;20035;-73
2023/03/01 09:45:05;;;;;;;104.25;50.25;;;5.50;99.90;;;;;;4937399;29;20386;-76
2023/03/01 09:47:34;;;;;;;104.07;52.30;;;5.50;99.90;;;;;;4859657;29;20034;-76
2023/03/01 09:50:17;;;;;;;103.22;47.60;;;5.70;99.90;;;;;;4860036;29;20054;-75
2023/03/01 09:53:01;;;;;;;108.43;52.83;;;5.70;99.90;;;;;;4859884;29;20163;-75
2023/03/01 09:55:37;;;;;;;93.10;50.60;;;5.80;99.90;;;;;;4859537;29;20082;-76
2023/03/01 09:58:21;;;;;;;106.30;51.08;;;5.90;99.90;;;;;;4860525;29;20057;-77
2023/03/01 10:00:49;;;;;;;113.10;56.30;;;6.10;99.90;;;;;;4859784;29;20060;-76
2023/03/01 10:03:45;;;;;;;137.43;72.80;;;6.30;99.90;;;;;;4859936;29;20116;-74
2023/03/01 10:06:15;;;;;;;99.43;51.38;;;6.50;99.90;;;;;;4859982;29;20157;-76
2023/03/01 10:09:10;;;;;;;106.57;53.33;;;6.60;99.90;;;;;;4840507;29;20045;-74
2023/03/01 10:11:41;;;;;;;87.10;45.25;;;6.90;99.90;;;;;;4854780;29;20054;-78
2023/03/01 10:14:31;;;;;;;62.55;36.97;;;6.90;99.90;;;;;;4858999;29;20194;-73
2023/03/01 10:17:03;;;;;;;56.63;30.60;;;6.90;99.90;;;;;;4858718;29;20132;-76
2023/03/01 10:19:44;;;;;;;61.10;34.07;;;6.90;99.90;;;;;;4858648;29;20041;-76
2023/03/01 10:22:31;;;;;;;60.65;33.33;;;6.90;99.90;;;;;;4858980;29;20045;-76
2023/03/01 10:25:03;;;;;;;64.78;31.20;;;7.10;99.90;;;;;;4904534;29;20036;-74
2023/03/01 10:27:44;;;;;;;58.78;33.60;;;7.30;99.90;;;;;;4935903;29;20502;-76
2023/03/01 10:30:32;;;;;;;71.55;32.38;;;7.30;99.90;;;;;;4925226;29;20036;-77
2023/03/01 10:32:58;;;;;;;52.75;30.80;;;7.20;99.90;;;;;;4935565;29;20020;-76
2023/03/01 10:35:28;;;;;;;52.72;30.40;;;7.30;99.90;;;;;;4936270;29;20431;-77
2023/03/01 10:38:03;;;;;;;58.15;32.47;;;7.40;99.90;;;;;;4935727;29;20043;-77
2023/03/01 10:40:32;;;;;;;59.42;32.83;;;7.40;99.90;;;;;;4935525;29;20059;-78
2023/03/01 10:43:02;;;;;;;64.53;37.55;;;7.60;99.90;;;;;;4935739;29;20086;-77
2023/03/01 10:45:37;;;;;;;63.85;36.33;;;7.70;99.90;;;;;;4935643;29;20028;-77
2023/03/01 10:48:14;;;;;;;64.72;36.75;;;7.70;99.90;;;;;;4934324;29;20453;-77
2023/03/01 10:50:48;;;;;;;66.63;39.78;;;7.80;99.90;;;;;;4935725;29;20389;-77
2023/03/01 10:53:26;;;;;;;66.95;39.30;;;7.80;99.90;;;;;;4935701;29;20035;-76
2023/03/01 10:56:08;;;;;;;60.92;34.05;;;8.00;99.90;;;;;;4934783;29;20059;-75
2023/03/01 10:58:36;;;;;;;59.33;32.28;;;8.00;99.90;;;;;;4935914;29;20032;-73
2023/03/01 11:01:22;;;;;;;55.88;33.05;;;8.00;99.90;;;;;;4939632;29;20115;-75
2023/03/01 11:04:06;;;;;;;56.83;30.08;;;8.00;99.90;;;;;;4874346;29;20427;-78
2023/03/01 11:06:32;;;;;;;;;;;7.80;99.90;;;;;;4862424;29;20092;-78
2023/03/01 11:09:15;;;;;;;51.75;27.35;;;7.80;99.90;;;;;;4861957;29;19919;-74
2023/03/01 11:11:41;;;;;;;51.00;27.85;;;7.90;99.90;;;;;;4861955;29;20033;-77
2023/03/01 11:14:18;;;;;;;56.15;30.17;;;7.40;99.90;;;;;;4861793;29;20081;-78
2023/03/01 11:16:47;;;;;;;61.58;36.00;;;7.70;99.90;;;;;;4861706;29;20427;-78
2023/03/01 11:19:12;;;;;;;52.90;28.80;;;7.90;99.90;;;;;;4861941;29;20085;-78
2023/03/01 11:21:53;;;;;;;52.00;29.55;;;8.00;99.90;;;;;;4862038;29;20046;-78
2023/03/01 11:24:22;;;;;;;53.60;29.80;;;8.00;99.90;;;;;;4861784;29;20515;-77
2023/03/01 11:26:54;;;;;;;50.50;30.80;;;8.00;99.90;;;;;;4861608;29;20041;-77
2023/03/01 11:29:41;;;;;;;49.25;31.15;;;8.00;99.90;;;;;;4861696;29;20067;-78
2023/03/01 11:32:09;;;;;;;53.05;31.95;;;8.20;99.90;;;;;;4861745;29;20099;-74
2023/03/01 11:34:42;;;;;;;51.45;30.08;;;8.30;99.90;;;;;;4861588;29;20045;-77
2023/03/01 11:37:38;;;;;;;54.03;30.02;;;8.50;99.90;;;;;;4861621;29;20045;-78
2023/03/01 11:40:12;;;;;;;58.60;36.70;;;8.70;99.90;;;;;;4870923;29;20036;-75
2023/03/01 11:42:52;;;;;;;59.88;34.60;;;8.70;99.90;;;;;;4936605;29;20020;-72
2023/03/01 11:45:22;;;;;;;61.72;35.50;;;8.90;99.90;;;;;;4938498;29;20566;-76
2023/03/01 11:47:59;;;;;;;56.95;35.08;;;9.00;99.90;;;;;;4926256;29;20050;-78
2023/03/01 11:50:35;;;;;;;63.30;36.25;;;9.10;99.90;;;;;;4938337;29;20035;-77
2023/03/01 11:53:13;;;;;;;62.10;37.65;;;9.10;99.90;;;;;;4938731;29;20461;-75
2023/03/01 11:56:00;;;;;;;67.07;38.20;;;9.00;99.90;;;;;;4938320;29;20024;-78
2023/03/01 11:58:34;;;;;;;60.95;35.83;;;8.90;99.90;;;;;;4938053;29;20389;-75
2023/03/01 12:01:25;;;;;;;56.38;35.13;;;8.80;99.90;;;;;;4938336;29;20043;-75
2023/03/01 12:04:18;;;;;;;46.75;29.63;;;8.80;99.90;;;;;;4938302;29;20131;-73
2023/03/01 12:07:05;;;;;;;58.45;33.88;;;8.70;99.90;;;;;;4937974;29;20052;-74
2023/03/01 12:09:56;;;;;;;55.05;32.53;;;8.80;99.90;;;;;;4938083;29;20028;-73
2023/03/01 12:12:47;;;;;;;52.65;29.95;;;8.90;99.90;;;;;;4927453;29;20027;-76
2023/03/01 12:15:39;;;;;;;49.70;31.95;;;8.90;99.90;;;;;;4938015;29;20114;-72
2023/03/01 12:18:12;;;;;;;58.90;36.20;;;8.90;99.90;;;;;;4938078;29;20470;-76
2023/03/01 12:20:57;;;;;;;53.88;33.50;;;8.80;99.90;;;;;;4938044;29;20042;-75
2023/03/01 12:23:23;;;;;;;50.78;33.28;;;8.60;99.90;;;;;;4936561;29;20032;-79
2023/03/01 12:26:02;;;;;;;46.35;29.98;;;8.50;99.90;;;;;;4937745;29;20099;-76
2023/03/01 12:28:33;;;;;;;50.92;32.33;;;8.60;99.90;;;;;;4937828;29;20023;-77
2023/03/01 12:31:27;;;;;;;54.43;32.93;;;8.60;99.90;;;;;;4937939;29;20039;-76
2023/03/01 12:34:05;;;;;;;45.92;27.92;;;8.60;99.90;;;;;;4937693;29;20118;-76
2023/03/01 12:36:37;;;;;;;43.58;27.33;;;8.40;99.90;;;;;;4925381;29;20043;-77
2023/03/01 12:39:32;;;;;;;48.50;28.93;;;8.50;99.90;;;;;;4937768;29;20032;-78
2023/03/01 12:42:20;;;;;;;49.58;32.17;;;8.40;99.90;;;;;;4937806;29;20054;-77
2023/03/01 12:44:53;;;;;;;56.47;31.45;;;8.50;99.90;;;;;;4926403;29;20568;-77
2023/03/01 12:47:40;;;;;;;52.40;30.00;;;8.50;99.90;;;;;;4938029;29;20036;-75
2023/03/01 12:50:33;;;;;;;49.20;30.27;;;8.40;99.90;;;;;;4937644;29;20490;-78
2023/03/01 12:52:59;;;;;;;55.58;34.38;;;8.50;99.90;;;;;;4937372;29;20035;-78
2023/03/01 12:55:43;;;;;;;47.75;30.25;;;8.40;99.90;;;;;;4930666;29;20530;-76
2023/03/01 12:58:39;;;;;;;51.67;32.17;;;8.50;99.90;;;;;;4918449;29;20549;-75
2023/03/01 13:01:31;;;;;;;66.85;35.78;;;8.60;99.90;;;;;;4918491;29;20074;-78